Skip Navigation Links
NOAA logo - Click to go to the NOAA homepage
NOAA's National Weather Service
Alaska Aviation Weather Unit
  NWS logo - Click to go to the NWS homepage
Left Navbar Graphic     21 AKDT = 05 GMT

   
NOAA is celebrating 200 years of science, service, and stewardship. Visit the NOAA 200th celebration Web site to learn more.
USA.gov is the U.S. Government's official Web portal to all Federal, state and local government Web resources and services.
Facebook
NWS on Facebook

Important Change Regarding the AAWU Web Presence

 

Over the last several months, the AAWU has been working to navigate its webpages to a nationally supported server. Security, as well as other needs, have necessitated the change.  In the process, we have made an effort to enhance the functionality of our website, as well as some of our products. As of June 27, 2017, aawu.arh.noaa.gov will be discontinued. The new AAWU web address is weather.gov/aawu. It is now live and will run in-parallel with the old site until it is discontinued. Please send any feedback or questions regarding the new webpages to nws.ar.aawu.webauthors@noaa.gov.  Thank you for your patience during this time of transition.
AAWU Home :: Display TAF Add Bookmark
TAF PAAQ 242320Z 2500/2524 15007KT P6SM VCSH SCT025 BKN035
     FM250300 VRB06KT P6SM VCTS SCT035CB BKN045
     FM250600 VRB04KT P6SM -SHRA BKN035
     FM251300 36004KT P6SM SCT035 BKN070
     FM252000 19005KT P6SM SCT070=
SPECI PAAQ 242300Z VRB03KT 10SM SCT017 BKN031 17/11 A3008 RMK AO2
     T01670106=

METAR PAAQ 242353Z 16004KT 10SM SCT017 BKN031 17/11 A3007 RMK AO2 SLP184
     T01670106 10167 20122 56014=

METAR PAAQ 250053Z 00000KT 10SM BKN033 17/11 A3006 RMK AO2 SLP180
 T01720106=

METAR PAAQ 250153Z VRB03KT 10SM BKN032 18/11 A3004 RMK AO2 SLP174
     T01830111=

METAR PAAQ 250253Z AUTO 07003KT 10SM FEW033 OVC070 18/11 A3004 RMK AO2
     SLP173 T01830111 56012 TSNO=

METAR PAAQ 250353Z AUTO 36006KT 10SM -RA OVC090 17/14 A3003 RMK AO2
     RAB15 SLP169 P0004 T01720139 TSNO=

METAR PAAQ 250453Z AUTO 03006KT 10SM BKN110 16/13 A3002 RMK AO2 RAE28
     SLP168 P0001 T01610133 TSNO=


NOAA's National Weather Service
Alaska Aviation Weather Unit
6930 Sand Lake Road
Anchorage, AK 99502-1845
Disclaimer
Credits
Glossary
Privacy Policy
About Us
Career Opportunities
Contact AAWU Internet Services Site last modified: April, 17th 2012